Time;durP1;ratioP1;P1;durP2;ratioP2;P2;SDS_P1;SDS_P2;PMS_P1;PMS_P2;Temp;Humidity;BMP_temperature;BMP_pressure;BME280_temperature;BME280_humidity;BME280_pressure;Samples;Min_cycle;Max_cycle;Signal;HPM_P1;HPM_P2
2021/12/02 14:06:32;;;;;;;4.32;1.80;;;;;;;;;;4738937;30;20059;-75
2021/12/02 14:08:57;;;;;;;4.80;1.40;;;;;;;;;;4748042;30;20052;-75
2021/12/02 14:11:23;;;;;;;5.03;1.60;;;;;;;;;;4750657;30;20491;-75
2021/12/02 14:13:48;;;;;;;6.07;1.50;;;;;;;;;;4752732;30;20058;-76
2021/12/02 14:16:16;;;;;;;3.63;1.48;;;;;;;;;;4752122;30;20102;-76
2021/12/02 14:18:42;;;;;;;5.57;1.30;;;;;;;;;;4752453;30;20068;-75
2021/12/02 14:21:10;;;;;;;4.90;1.33;;;;;;;;;;4753770;30;20070;-77
2021/12/02 14:23:37;;;;;;;3.80;1.48;;;;;;;;;;4752127;30;20040;-75
2021/12/02 14:26:13;;;;;;;3.17;1.25;;;;;;;;;;4741186;30;20435;-75
2021/12/02 14:28:49;;;;;;;5.07;1.38;;;;;;;;;;4739854;30;20052;-75
2021/12/02 14:31:31;;;;;;;4.10;1.27;;;;;;;;;;4743567;30;20040;-76
2021/12/02 14:33:59;;;;;;;3.35;1.25;;;;;;;;;;4743435;30;20110;-76
2021/12/02 14:36:38;;;;;;;2.90;1.20;;;;;;;;;;4743305;30;20127;-76
2021/12/02 14:39:06;;;;;;;4.32;1.27;;;;;;;;;;4730220;30;20043;-76
2021/12/02 14:41:37;;;;;;;3.85;1.48;;;;;;;;;;4741186;30;20392;-75
2021/12/02 14:44:12;;;;;;;4.32;1.45;;;;;;;;;;4745609;30;20044;-76
2021/12/02 14:46:43;;;;;;;2.38;1.10;;;;;;;;;;4741939;30;20032;-75
2021/12/02 14:49:20;;;;;;;2.95;1.30;;;;;;;;;;4743305;30;20126;-75
2021/12/02 14:52:03;;;;;;;3.15;1.38;;;;;;;;;;4744356;30;20109;-75
2021/12/02 14:54:33;;;;;;;9.90;1.60;;;;;;;;;;4740200;30;20616;-75
2021/12/02 14:57:01;;;;;;;4.57;1.55;;;;;;;;;;4742138;30;20511;-75
2021/12/02 14:59:29;;;;;;;3.08;1.30;;;;;;;;;;4744630;30;20160;-75
2021/12/02 15:02:10;;;;;;;4.80;1.30;;;;;;;;;;4749456;30;20044;-75
2021/12/02 15:04:42;;;;;;;2.83;1.33;;;;;;;;;;4745591;30;20044;-75
2021/12/02 15:07:09;;;;;;;3.88;1.35;;;;;;;;;;4746751;30;20054;-75
2021/12/02 15:09:45;;;;;;;11.43;1.30;;;;;;;;;;4748374;30;20184;-75
2021/12/02 15:12:24;;;;;;;4.03;1.60;;;;;;;;;;4746668;30;20072;-75
2021/12/02 15:14:57;;;;;;;4.43;1.50;;;;;;;;;;4748114;30;20062;-76
2021/12/02 15:17:40;;;;;;;4.38;1.40;;;;;;;;;;4747446;30;20063;-75
2021/12/02 15:20:25;;;;;;;6.13;1.80;;;;;;;;;;4745923;30;20395;-75
2021/12/02 15:22:53;;;;;;;4.85;1.80;;;;;;;;;;4747968;30;20047;-75
2021/12/02 15:25:35;;;;;;;5.78;2.00;;;;;;;;;;4745633;30;20060;-75
2021/12/02 15:28:03;;;;;;;4.70;2.05;;;;;;;;;;4745583;30;20391;-75
2021/12/02 15:30:34;;;;;;;6.57;2.20;;;;;;;;;;4755401;30;20466;-76
2021/12/02 15:33:00;;;;;;;12.52;3.05;;;;;;;;;;4758128;30;20087;-75
2021/12/02 15:35:26;;;;;;;4.85;2.10;;;;;;;;;;4763430;30;20051;-75
2021/12/02 15:37:51;;;;;;;5.40;1.90;;;;;;;;;;4759709;30;20202;-75
2021/12/02 15:40:17;;;;;;;4.82;1.67;;;;;;;;;;4761602;30;20045;-75
2021/12/02 15:42:44;;;;;;;4.63;1.73;;;;;;;;;;4762013;30;20557;-75
2021/12/02 15:45:12;;;;;;;6.47;2.10;;;;;;;;;;4759572;30;20045;-75
2021/12/02 15:47:38;;;;;;;5.88;2.25;;;;;;;;;;4763004;30;20471;-75
2021/12/02 15:50:10;;;;;;;5.28;2.15;;;;;;;;;;4758178;30;20060;-75
2021/12/02 15:52:36;;;;;;;4.68;2.08;;;;;;;;;;4763110;30;20504;-75
2021/12/02 15:55:05;;;;;;;7.22;2.60;;;;;;;;;;4757728;30;20048;-76
2021/12/02 15:57:31;;;;;;;5.38;2.20;;;;;;;;;;4762658;30;20071;-76
2021/12/02 15:59:58;;;;;;;6.88;2.80;;;;;;;;;;4758539;30;20501;-76
2021/12/02 16:02:27;;;;;;;10.93;5.70;;;;;;;;;;4762480;30;20051;-76
2021/12/02 16:04:59;;;;;;;11.75;5.72;;;;;;;;;;4759315;30;20123;-76
2021/12/02 16:07:33;;;;;;;9.45;4.80;;;;;;;;;;4737646;30;20044;-75
2021/12/02 16:10:14;;;;;;;8.07;3.53;;;;;;;;;;4740132;30;20048;-75
2021/12/02 16:12:40;;;;;;;6.15;2.95;;;;;;;;;;4744998;30;20052;-76
2021/12/02 16:15:09;;;;;;;5.15;2.63;;;;;;;;;;4740452;30;20103;-76
2021/12/02 16:17:36;;;;;;;8.43;3.00;;;;;;;;;;4745117;30;20048;-77
2021/12/02 16:20:06;;;;;;;8.07;3.08;;;;;;;;;;4739754;30;20053;-76
2021/12/02 16:22:31;;;;;;;7.18;3.15;;;;;;;;;;4744854;30;20048;-76
2021/12/02 16:24:57;;;;;;;11.27;3.50;;;;;;;;;;4740992;30;20388;-76
2021/12/02 16:27:24;;;;;;;13.43;3.67;;;;;;;;;;4739993;30;20063;-77
2021/12/02 16:29:50;;;;;;;8.57;3.70;;;;;;;;;;4739180;30;20140;-77
2021/12/02 16:32:18;;;;;;;7.85;3.90;;;;;;;;;;4736990;30;20056;-76
2021/12/02 16:34:44;;;;;;;9.30;4.20;;;;;;;;;;4736133;30;20048;-76
2021/12/02 16:37:10;;;;;;;14.57;5.10;;;;;;;;;;4727221;30;20067;-77
2021/12/02 16:39:36;;;;;;;12.93;4.95;;;;;;;;;;4731343;30;20498;-75
2021/12/02 16:42:04;;;;;;;13.77;5.38;;;;;;;;;;4731451;30;20130;-76
2021/12/02 16:44:29;;;;;;;15.65;6.68;;;;;;;;;;4733007;30;20051;-76
2021/12/02 16:46:55;;;;;;;19.33;6.35;;;;;;;;;;4718251;30;20378;-75
2021/12/02 16:49:25;;;;;;;12.10;5.90;;;;;;;;;;4731201;30;20403;-75
2021/12/02 16:51:55;;;;;;;25.02;12.18;;;;;;;;;;4722321;30;20140;-76
2021/12/02 16:54:22;;;;;;;25.40;12.13;;;;;;;;;;4737622;30;20115;-76
2021/12/02 16:56:48;;;;;;;30.00;12.50;;;;;;;;;;4726760;30;20107;-76
2021/12/02 16:59:14;;;;;;;23.60;11.05;;;;;;;;;;4730860;30;20048;-76
2021/12/02 17:01:40;;;;;;;21.20;10.65;;;;;;;;;;4729882;30;20049;-75
2021/12/02 17:04:05;;;;;;;21.60;10.10;;;;;;;;;;4714925;30;20048;-76
2021/12/02 17:06:31;;;;;;;27.23;12.43;;;;;;;;;;4738776;30;20052;-76
2021/12/02 17:08:58;;;;;;;43.05;15.20;;;;;;;;;;4741617;30;20052;-76
2021/12/02 17:11:25;;;;;;;38.15;15.15;;;;;;;;;;4759622;30;20134;-76
2021/12/02 17:13:53;;;;;;;34.85;13.98;;;;;;;;;;4761418;30;20185;-76
2021/12/02 17:16:19;;;;;;;31.48;11.50;;;;;;;;;;4755743;30;20089;-75
2021/12/02 17:18:47;;;;;;;40.33;13.60;;;;;;;;;;4755930;30;20141;-76
2021/12/02 17:21:12;;;;;;;76.78;23.35;;;;;;;;;;4756747;30;20040;-76
2021/12/02 17:23:39;;;;;;;37.40;15.85;;;;;;;;;;4755043;30;20055;-75
2021/12/02 17:26:07;;;;;;;48.08;19.75;;;;;;;;;;4755677;30;20123;-77
2021/12/02 17:28:33;;;;;;;53.83;21.60;;;;;;;;;;4756093;30;20044;-75
2021/12/02 17:30:59;;;;;;;33.67;15.48;;;;;;;;;;4757108;30;20123;-76
2021/12/02 17:33:26;;;;;;;34.53;17.55;;;;;;;;;;4765068;30;20110;-75
2021/12/02 17:35:52;;;;;;;28.40;14.60;;;;;;;;;;4759186;30;20059;-75
2021/12/02 17:38:18;;;;;;;29.88;14.15;;;;;;;;;;4755758;30;20047;-76
2021/12/02 17:40:50;;;;;;;49.65;26.10;;;;;;;;;;4751911;30;20040;-76
2021/12/02 17:43:19;;;;;;;61.17;26.77;;;;;;;;;;4751513;30;20078;-75
2021/12/02 17:45:46;;;;;;;36.45;15.40;;;;;;;;;;4744522;30;20566;-74
2021/12/02 17:48:12;;;;;;;35.63;15.63;;;;;;;;;;4736154;30;20459;-76
2021/12/02 17:50:40;;;;;;;36.33;16.05;;;;;;;;;;4751936;30;20044;-75
2021/12/02 17:53:05;;;;;;;36.55;16.10;;;;;;;;;;4756584;30;20513;-75
2021/12/02 17:55:31;;;;;;;44.80;18.90;;;;;;;;;;4751214;30;20044;-76
2021/12/02 17:57:59;;;;;;;37.42;15.98;;;;;;;;;;4728578;30;20055;-76
2021/12/02 18:00:27;;;;;;;45.53;19.60;;;;;;;;;;4750931;30;20397;-75
2021/12/02 18:02:53;;;;;;;38.35;17.52;;;;;;;;;;4751013;30;20475;-76
2021/12/02 18:05:19;;;;;;;40.95;18.65;;;;;;;;;;4746222;30;20047;-75
2021/12/02 18:07:45;;;;;;;40.55;18.50;;;;;;;;;;4722399;30;20506;-75
2021/12/02 18:10:12;;;;;;;42.28;20.75;;;;;;;;;;4719021;30;20044;-75
2021/12/02 18:12:38;;;;;;;60.80;24.70;;;;;;;;;;4734326;30;20045;-76
2021/12/02 18:15:06;;;;;;;55.03;25.67;;;;;;;;;;4725006;30;20049;-75
2021/12/02 18:17:32;;;;;;;39.97;19.38;;;;;;;;;;4737532;30;20081;-75
2021/12/02 18:19:58;;;;;;;34.75;16.00;;;;;;;;;;4724177;30;20036;-75
2021/12/02 18:22:24;;;;;;;46.65;22.63;;;;;;;;;;4741775;30;20045;-75
2021/12/02 18:24:50;;;;;;;31.80;15.98;;;;;;;;;;4735425;30;20118;-76
2021/12/02 18:27:21;;;;;;;33.38;17.38;;;;;;;;;;4741384;30;20105;-76
2021/12/02 18:29:49;;;;;;;33.50;17.50;;;;;;;;;;4731915;30;20049;-76
2021/12/02 18:32:18;;;;;;;28.70;13.60;;;;;;;;;;4734101;30;20044;-75
2021/12/02 18:34:45;;;;;;;29.35;15.73;;;;;;;;;;4742557;30;20483;-75
2021/12/02 18:37:11;;;;;;;20.70;11.02;;;;;;;;;;4733332;30;20549;-76
2021/12/02 18:39:37;;;;;;;25.73;11.52;;;;;;;;;;4729036;30;20102;-76
2021/12/02 18:42:03;;;;;;;26.52;13.55;;;;;;;;;;4735049;30;20040;-75
2021/12/02 18:44:28;;;;;;;24.08;11.38;;;;;;;;;;4719743;30;20048;-75
2021/12/02 18:46:54;;;;;;;20.20;10.85;;;;;;;;;;4741913;30;20047;-75
2021/12/02 18:49:20;;;;;;;19.90;10.23;;;;;;;;;;4738208;30;20141;-76
2021/12/02 18:51:46;;;;;;;12.95;5.65;;;;;;;;;;4745429;30;20431;-77
2021/12/02 18:54:12;;;;;;;12.35;6.28;;;;;;;;;;4742866;30;20036;-75
2021/12/02 18:56:38;;;;;;;14.68;6.40;;;;;;;;;;4729552;30;20049;-76
2021/12/02 18:59:05;;;;;;;14.15;7.47;;;;;;;;;;4742548;30;20492;-75
2021/12/02 19:01:33;;;;;;;20.30;9.57;;;;;;;;;;4738632;30;20114;-75
2021/12/02 19:04:00;;;;;;;43.65;18.33;;;;;;;;;;4731075;30;20044;-75
2021/12/02 19:22:59;;;;;;;9.82;5.38;;;;;;;;;;4735203;30;20117;-75
2021/12/02 19:28:09;;;;;;;12.20;5.32;;;;;;;;;;4735079;30;20106;-75
2021/12/02 19:30:36;;;;;;;11.93;6.40;;;;;;;;;;4730137;30;20045;-75
2021/12/02 19:33:02;;;;;;;11.98;6.07;;;;;;;;;;4719661;30;20498;-75
2021/12/02 19:35:29;;;;;;;10.27;5.88;;;;;;;;;;4727783;30;20045;-75
2021/12/02 19:37:56;;;;;;;18.02;7.38;;;;;;;;;;4734817;30;20093;-75
2021/12/02 19:40:24;;;;;;;20.65;8.90;;;;;;;;;;4734616;30;20624;-76
2021/12/02 19:42:50;;;;;;;15.18;8.40;;;;;;;;;;4734776;30;20056;-76
2021/12/02 19:45:17;;;;;;;18.83;9.73;;;;;;;;;;4734837;30;20055;-76
2021/12/02 19:47:43;;;;;;;17.25;8.57;;;;;;;;;;4737792;30;20084;-75
2021/12/02 19:50:10;;;;;;;14.60;7.72;;;;;;;;;;4737655;30;20076;-75
2021/12/02 19:52:36;;;;;;;16.25;8.20;;;;;;;;;;4738022;30;20049;-76
2021/12/02 19:55:03;;;;;;;14.35;6.95;;;;;;;;;;4730909;30;20503;-76
2021/12/02 19:57:28;;;;;;;13.55;6.93;;;;;;;;;;4729726;30;20106;-76
2021/12/02 19:59:54;;;;;;;16.27;8.48;;;;;;;;;;4737783;30;20135;-75
2021/12/02 20:02:21;;;;;;;18.38;8.98;;;;;;;;;;4737537;30;20044;-75
2021/12/02 20:04:46;;;;;;;25.63;11.75;;;;;;;;;;4738081;30;20212;-76
2021/12/02 20:07:13;;;;;;;43.08;19.38;;;;;;;;;;4755378;30;20127;-76
2021/12/02 20:09:39;;;;;;;40.95;17.75;;;;;;;;;;4755298;30;20199;-76
2021/12/02 20:12:05;;;;;;;37.80;19.38;;;;;;;;;;4755096;30;20123;-76
2021/12/02 20:14:31;;;;;;;27.23;15.18;;;;;;;;;;4740021;30;20520;-75
2021/12/02 20:16:59;;;;;;;23.48;12.73;;;;;;;;;;4732362;30;20517;-75
2021/12/02 20:19:32;;;;;;;16.73;9.30;;;;;;;;;;4732455;30;20081;-76
2021/12/02 20:22:02;;;;;;;14.60;7.95;;;;;;;;;;4755144;30;20051;-75
2021/12/02 20:24:27;;;;;;;13.85;7.00;;;;;;;;;;4754861;30;20040;-75
2021/12/02 20:26:53;;;;;;;12.88;6.05;;;;;;;;;;4755111;30;20048;-75
2021/12/02 20:29:20;;;;;;;9.07;4.78;;;;;;;;;;4755033;30;20055;-76
2021/12/02 20:31:45;;;;;;;10.98;4.70;;;;;;;;;;4754855;30;20044;-76
2021/12/02 20:34:13;;;;;;;9.23;3.83;;;;;;;;;;4754988;30;20044;-75
2021/12/02 20:36:39;;;;;;;6.43;3.53;;;;;;;;;;4755058;30;20055;-75
2021/12/02 20:39:11;;;;;;;6.75;3.42;;;;;;;;;;4755001;30;20044;-75
2021/12/02 20:41:41;;;;;;;10.73;5.05;;;;;;;;;;4748235;30;20052;-76
2021/12/02 20:44:07;;;;;;;9.13;4.40;;;;;;;;;;4754689;30;20044;-74
2021/12/02 20:46:39;;;;;;;8.75;4.50;;;;;;;;;;4754966;30;20040;-74
2021/12/02 20:49:15;;;;;;;8.45;3.53;;;;;;;;;;4754735;30;20127;-76
2021/12/02 20:51:41;;;;;;;7.95;3.58;;;;;;;;;;4754676;30;20048;-74
2021/12/02 20:54:08;;;;;;;3.90;2.40;;;;;;;;;;4754564;30;20087;-74
2021/12/02 20:56:34;;;;;;;4.63;2.47;;;;;;;;;;4754571;30;20048;-74
2021/12/02 20:59:02;;;;;;;5.38;2.35;;;;;;;;;;4754678;30;20070;-74
2021/12/02 21:01:29;;;;;;;4.40;2.25;;;;;;;;;;4754297;30;20110;-77
2021/12/02 21:03:58;;;;;;;5.03;2.60;;;;;;;;;;4754583;30;20155;-76
2021/12/02 21:06:25;;;;;;;6.35;2.83;;;;;;;;;;4754427;30;20112;-76
2021/12/02 21:08:51;;;;;;;5.35;2.42;;;;;;;;;;4754370;30;20051;-76
2021/12/02 21:11:17;;;;;;;4.50;2.38;;;;;;;;;;4754305;30;20466;-76
2021/12/02 21:13:51;;;;;;;4.75;2.10;;;;;;;;;;4754434;30;20048;-75
2021/12/02 21:16:17;;;;;;;5.97;2.30;;;;;;;;;;4754218;30;20072;-77
2021/12/02 21:18:46;;;;;;;4.93;2.00;;;;;;;;;;4754319;30;20036;-76
2021/12/02 21:21:14;;;;;;;5.78;2.63;;;;;;;;;;4753984;30;20044;-76
2021/12/02 21:23:43;;;;;;;4.88;2.42;;;;;;;;;;4754260;30;20044;-76
2021/12/02 21:26:09;;;;;;;4.30;2.28;;;;;;;;;;4754050;30;20130;-76
2021/12/02 21:28:35;;;;;;;5.13;2.25;;;;;;;;;;4754232;30;20055;-76
2021/12/02 21:31:02;;;;;;;4.45;1.95;;;;;;;;;;4753749;30;20039;-76
2021/12/02 21:33:30;;;;;;;4.43;2.38;;;;;;;;;;4753738;30;20127;-77
2021/12/02 21:36:02;;;;;;;5.30;2.40;;;;;;;;;;4753721;30;20484;-76
2021/12/02 21:38:29;;;;;;;4.70;2.33;;;;;;;;;;4753850;30;20048;-76
2021/12/02 21:40:55;;;;;;;5.32;2.30;;;;;;;;;;4753655;30;20051;-76
2021/12/02 21:43:21;;;;;;;4.72;2.53;;;;;;;;;;4738113;30;20123;-76
2021/12/02 21:45:51;;;;;;;6.95;2.47;;;;;;;;;;4753763;30;20084;-75
2021/12/02 21:48:17;;;;;;;6.32;2.72;;;;;;;;;;4753673;30;20383;-77
2021/12/02 21:50:43;;;;;;;5.03;2.60;;;;;;;;;;4753752;30;20498;-77
2021/12/02 21:53:08;;;;;;;6.15;2.80;;;;;;;;;;4753419;30;20048;-76
2021/12/02 21:55:36;;;;;;;5.93;2.80;;;;;;;;;;4753570;30;20051;-76
2021/12/02 21:58:06;;;;;;;5.63;2.90;;;;;;;;;;4753588;30;20111;-76
2021/12/02 22:03:10;;;;;;;8.07;3.30;;;;;;;;;;4753369;30;20160;-75
2021/12/02 22:05:36;;;;;;;6.97;3.45;;;;;;;;;;4753305;30;20087;-75
2021/12/02 22:08:03;;;;;;;6.72;3.30;;;;;;;;;;4737784;30;20040;-75
2021/12/02 22:10:30;;;;;;;7.20;3.63;;;;;;;;;;4752749;30;20111;-77
2021/12/02 22:12:56;;;;;;;8.15;3.63;;;;;;;;;;4753143;30;20043;-76
2021/12/02 22:15:22;;;;;;;6.75;3.17;;;;;;;;;;4753220;30;20048;-76
2021/12/02 22:17:48;;;;;;;7.97;3.50;;;;;;;;;;4753570;30;20054;-76
2021/12/02 22:20:14;;;;;;;6.82;3.42;;;;;;;;;;4753151;30;20395;-77
2021/12/02 22:22:40;;;;;;;6.82;3.45;;;;;;;;;;4750364;30;20048;-75
2021/12/02 22:25:07;;;;;;;6.40;3.20;;;;;;;;;;4752452;30;20172;-75
2021/12/02 22:27:33;;;;;;;7.55;3.55;;;;;;;;;;4752807;30;20048;-77
2021/12/02 22:29:58;;;;;;;7.28;3.33;;;;;;;;;;4757027;30;20044;-75
2021/12/02 22:32:25;;;;;;;6.40;3.28;;;;;;;;;;4759007;30;20062;-76
2021/12/02 22:34:50;;;;;;;7.53;3.72;;;;;;;;;;4757782;30;20122;-76
2021/12/02 22:37:27;;;;;;;9.27;3.50;;;;;;;;;;4758964;30;20124;-77
2021/12/02 22:39:55;;;;;;;6.70;3.13;;;;;;;;;;4764250;30;20071;-77
2021/12/02 22:42:22;;;;;;;6.72;3.38;;;;;;;;;;4754971;30;20048;-77
2021/12/02 22:44:49;;;;;;;7.45;3.53;;;;;;;;;;4759456;30;20043;-77
2021/12/02 22:47:15;;;;;;;7.18;3.03;;;;;;;;;;4751240;30;20407;-77
2021/12/02 22:49:41;;;;;;;5.95;2.97;;;;;;;;;;4751334;30;20063;-79
2021/12/02 22:52:07;;;;;;;6.30;3.13;;;;;;;;;;4735439;30;20092;-77
2021/12/02 22:54:36;;;;;;;5.55;3.00;;;;;;;;;;4735491;30;20494;-76
2021/12/02 22:57:03;;;;;;;6.45;3.22;;;;;;;;;;4751116;30;20044;-78
2021/12/02 22:59:29;;;;;;;7.47;3.40;;;;;;;;;;4735616;30;20072;-77
2021/12/02 23:01:54;;;;;;;7.68;3.35;;;;;;;;;;4751463;30;20402;-75
2021/12/02 23:04:20;;;;;;;6.57;3.35;;;;;;;;;;4736384;30;20534;-76
2021/12/02 23:06:46;;;;;;;6.40;3.75;;;;;;;;;;4752029;30;20048;-75
2021/12/02 23:09:11;;;;;;;9.70;3.30;;;;;;;;;;4752798;30;20052;-78
2021/12/02 23:11:38;;;;;;;5.82;3.08;;;;;;;;;;4752543;30;20044;-76
2021/12/02 23:14:07;;;;;;;5.45;2.90;;;;;;;;;;4752717;30;20048;-77
2021/12/02 23:16:32;;;;;;;7.78;2.95;;;;;;;;;;4737034;30;20062;-76
2021/12/02 23:18:58;;;;;;;7.82;3.00;;;;;;;;;;4752558;30;20048;-77
2021/12/02 23:21:24;;;;;;;6.30;3.10;;;;;;;;;;4753889;30;20068;-76
2021/12/02 23:23:50;;;;;;;6.65;2.97;;;;;;;;;;4755944;30;20109;-75
2021/12/02 23:26:17;;;;;;;6.35;3.22;;;;;;;;;;4740770;30;20058;-77
2021/12/02 23:28:50;;;;;;;8.25;3.40;;;;;;;;;;4756017;30;20132;-75
2021/12/02 23:31:19;;;;;;;6.18;3.20;;;;;;;;;;4752293;30;20083;-76
2021/12/02 23:33:48;;;;;;;6.32;3.30;;;;;;;;;;4755677;30;20114;-76
2021/12/02 23:36:19;;;;;;;6.20;3.70;;;;;;;;;;4749025;30;20044;-77
2021/12/02 23:38:45;;;;;;;6.95;3.33;;;;;;;;;;4740109;30;20067;-76
2021/12/02 23:41:11;;;;;;;8.82;3.60;;;;;;;;;;4755882;30;20056;-77
2021/12/02 23:43:38;;;;;;;7.75;3.67;;;;;;;;;;4755666;30;20047;-78
2021/12/02 23:46:04;;;;;;;9.60;3.95;;;;;;;;;;4755926;30;20159;-78
2021/12/02 23:48:30;;;;;;;7.97;3.60;;;;;;;;;;4755866;30;20048;-77
2021/12/02 23:50:58;;;;;;;8.43;3.58;;;;;;;;;;4755837;30;20059;-76
2021/12/02 23:53:25;;;;;;;8.02;3.85;;;;;;;;;;4755567;30;20139;-77
2021/12/02 23:55:51;;;;;;;7.47;3.90;;;;;;;;;;4755868;30;20080;-75
2021/12/02 23:58:16;;;;;;;8.02;3.78;;;;;;;;;;4755458;30;20055;-75
